Time,TemperatureF,DewpointF,PressureIn,WindDirection,WindDirectionDegrees,WindSpeedMPH,WindSpeedGustMPH,Humidity,HourlyPrecipIn,Conditions,Clouds,dailyrainin,SoftwareType,DateUTC
2013-04-18 00:05:00,47.7,36.5,30.19,ENE,72,1.0,1.0,65,0.00,,,0.00,Wunderground v.1.15,2013-04-18 07:05:00,
2013-04-18 00:15:00,48.0,35.6,30.18,NE,46,1.0,1.0,62,0.00,,,0.00,Wunderground v.1.15,2013-04-18 07:15:00,
2013-04-18 00:25:00,48.5,35.2,30.18,NE,40,1.0,2.0,60,0.00,,,0.00,Wunderground v.1.15,2013-04-18 07:25:00,
2013-04-18 00:30:00,48.7,35.0,30.18,NE,39,1.0,1.0,59,0.00,,,0.00,Wunderground v.1.15,2013-04-18 07:30:00,
2013-04-18 00:40:00,48.8,35.1,30.19,NE,39,1.0,1.0,59,0.00,,,0.00,Wunderground v.1.15,2013-04-18 07:40:00,
2013-04-18 00:45:00,48.9,35.2,30.19,NE,39,1.0,1.0,59,0.00,,,0.00,Wunderground v.1.15,2013-04-18 07:45:00,
2013-04-18 00:55:00,48.9,34.8,30.19,NE,39,0.0,0.0,58,0.00,,,0.00,Wunderground v.1.15,2013-04-18 07:55:00,
2013-04-18 01:05:00,48.9,35.2,30.18,NE,39,0.0,2.0,59,0.00,,,0.00,Wunderground v.1.15,2013-04-18 08:05:00,
2013-04-18 01:10:00,48.9,35.2,30.18,NE,39,0.0,2.0,59,0.00,,,0.00,Wunderground v.1.15,2013-04-18 08:10:00,
2013-04-18 01:15:00,48.7,35.0,30.18,NE,39,0.0,2.0,59,0.00,,,0.00,Wunderground v.1.15,2013-04-18 08:15:00,
2013-04-18 01:25:00,48.4,34.7,30.18,NE,39,0.0,2.0,59,0.00,,,0.00,Wunderground v.1.15,2013-04-18 08:25:00,
2013-04-18 01:35:00,48.1,34.4,30.18,NE,41,0.0,2.0,59,0.00,,,0.00,Wunderground v.1.15,2013-04-18 08:35:00,
2013-04-18 01:45:00,47.8,34.6,30.18,NE,45,0.0,2.0,60,0.00,,,0.00,Wunderground v.1.15,2013-04-18 08:45:00,
2013-04-18 01:50:00,47.6,34.0,30.18,NE,46,0.0,2.0,59,0.00,,,0.00,Wunderground v.1.15,2013-04-18 08:50:00,
2013-04-18 02:00:00,47.3,34.1,30.18,NE,45,0.0,2.0,60,0.00,,,0.00,Wunderground v.1.15,2013-04-18 09:00:00,
2013-04-18 02:10:00,47.0,33.8,30.19,ENE,62,1.0,2.0,60,0.00,,,0.00,Wunderground v.1.15,2013-04-18 09:10:00,
2013-04-18 02:20:00,46.7,34.0,30.18,ENE,62,0.0,2.0,61,0.00,,,0.00,Wunderground v.1.15,2013-04-18 09:20:00,
2013-04-18 02:25:00,46.5,34.2,30.18,ENE,62,1.0,2.0,62,0.00,,,0.00,Wunderground v.1.15,2013-04-18 09:25:00,
2013-04-18 02:35:00,46.4,34.5,30.18,ENE,62,1.0,2.0,63,0.00,,,0.00,Wunderground v.1.15,2013-04-18 09:35:00,
2013-04-18 02:45:00,46.1,33.8,30.18,ENE,62,0.0,2.0,62,0.00,,,0.00,Wunderground v.1.15,2013-04-18 09:45:00,
2013-04-18 02:55:00,45.9,34.0,30.18,ENE,62,1.0,2.0,63,0.00,,,0.00,Wunderground v.1.15,2013-04-18 09:55:00,
2013-04-18 03:05:00,45.6,34.1,30.18,ENE,62,0.0,2.0,64,0.00,,,0.00,Wunderground v.1.15,2013-04-18 10:05:00,
2013-04-18 03:10:00,45.4,33.9,30.18,ENE,62,0.0,2.0,64,0.00,,,0.00,Wunderground v.1.15,2013-04-18 10:10:00,
2013-04-18 03:20:00,45.2,34.1,30.18,ENE,62,0.0,2.0,65,0.00,,,0.00,Wunderground v.1.15,2013-04-18 10:20:00,
2013-04-18 03:30:00,45.1,34.0,30.18,ENE,62,0.0,2.0,65,0.00,,,0.00,Wunderground v.1.15,2013-04-18 10:30:00,
2013-04-18 03:40:00,44.8,34.1,30.18,ENE,62,0.0,2.0,66,0.00,,,0.00,Wunderground v.1.15,2013-04-18 10:40:00,
2013-04-18 03:45:00,44.7,34.4,30.18,ENE,62,0.0,2.0,67,0.00,,,0.00,Wunderground v.1.15,2013-04-18 10:45:00,
2013-04-18 03:55:00,44.5,34.2,30.19,ENE,62,0.0,2.0,67,0.00,,,0.00,Wunderground v.1.15,2013-04-18 10:55:00,
2013-04-18 04:05:00,44.1,34.2,30.19,ENE,62,0.0,2.0,68,0.00,,,0.00,Wunderground v.1.15,2013-04-18 11:05:00,
2013-04-18 04:15:00,43.9,34.4,30.18,ENE,62,0.0,2.0,69,0.00,,,0.00,Wunderground v.1.15,2013-04-18 11:15:00,
2013-04-18 04:25:00,43.7,34.6,30.19,ENE,62,0.0,2.0,70,0.00,,,0.00,Wunderground v.1.15,2013-04-18 11:25:00,
2013-04-18 04:30:00,43.6,34.5,30.19,ENE,62,0.0,2.0,70,0.00,,,0.00,Wunderground v.1.15,2013-04-18 11:30:00,
2013-04-18 04:40:00,43.5,34.4,30.19,ENE,62,0.0,2.0,70,0.00,,,0.00,Wunderground v.1.15,2013-04-18 11:40:00,
2013-04-18 04:50:00,43.6,34.8,30.19,ENE,62,0.0,2.0,71,0.00,,,0.00,Wunderground v.1.15,2013-04-18 11:50:00,
2013-04-18 05:00:00,43.8,34.6,30.19,NE,55,1.0,2.0,70,0.00,,,0.00,Wunderground v.1.15,2013-04-18 12:00:00,
2013-04-18 05:10:00,43.9,34.7,30.19,NE,55,1.0,1.0,70,0.00,,,0.00,Wunderground v.1.15,2013-04-18 12:10:00,
2013-04-18 05:15:00,43.9,35.1,30.19,NE,55,0.0,2.0,71,0.00,,,0.00,Wunderground v.1.15,2013-04-18 12:15:00,
2013-04-18 05:25:00,43.8,35.4,30.19,NE,55,0.0,2.0,72,0.00,,,0.00,Wunderground v.1.15,2013-04-18 12:25:00,
2013-04-18 05:35:00,43.8,35.4,30.19,NE,55,1.0,2.0,72,0.00,,,0.00,Wunderground v.1.15,2013-04-18 12:35:00,
2013-04-18 05:45:00,43.7,35.3,30.19,NE,55,0.0,2.0,72,0.00,,,0.00,Wunderground v.1.15,2013-04-18 12:45:00,
2013-04-18 05:55:00,43.6,35.5,30.19,NE,45,2.0,2.0,73,0.00,,,0.00,Wunderground v.1.15,2013-04-18 12:55:00,
2013-04-18 06:05:00,43.7,35.3,30.20,NE,45,0.0,2.0,72,0.00,,,0.00,Wunderground v.1.15,2013-04-18 13:05:00,
2013-04-18 06:15:00,43.7,35.3,30.20,ENE,59,1.0,2.0,72,0.00,,,0.00,Wunderground v.1.15,2013-04-18 13:15:00,
2013-04-18 06:25:00,43.9,35.1,30.20,ENE,59,0.0,2.0,71,0.00,,,0.00,Wunderground v.1.15,2013-04-18 13:25:00,
2013-04-18 06:35:00,43.8,35.0,30.21,ENE,59,0.0,2.0,71,0.00,,,0.00,Wunderground v.1.15,2013-04-18 13:35:00,
2013-04-18 06:45:00,43.5,34.4,30.21,ENE,59,0.0,2.0,70,0.00,,,0.00,Wunderground v.1.15,2013-04-18 13:45:00,
2013-04-18 06:55:00,43.4,34.6,30.21,ENE,59,0.0,2.0,71,0.00,,,0.00,Wunderground v.1.15,2013-04-18 13:55:00,
2013-04-18 07:00:00,43.4,34.6,30.21,ENE,59,0.0,2.0,71,0.00,,,0.00,Wunderground v.1.15,2013-04-18 14:00:00,
2013-04-18 07:05:00,43.4,34.3,30.21,ENE,59,1.0,2.0,70,0.00,,,0.00,Wunderground v.1.15,2013-04-18 14:05:00,
2013-04-18 07:10:00,43.5,34.0,30.21,ENE,59,0.0,2.0,69,0.00,,,0.00,Wunderground v.1.15,2013-04-18 14:10:00,
2013-04-18 07:20:00,43.7,33.8,30.22,ENE,59,0.0,2.0,68,0.00,,,0.00,Wunderground v.1.15,2013-04-18 14:20:00,
2013-04-18 07:30:00,44.2,35.0,30.22,ENE,59,0.0,2.0,70,0.00,,,0.00,Wunderground v.1.15,2013-04-18 14:30:00,
2013-04-18 07:35:00,44.6,35.1,30.22,ENE,59,0.0,2.0,69,0.00,,,0.00,Wunderground v.1.15,2013-04-18 14:35:00,
2013-04-18 07:45:00,45.5,35.5,30.22,ENE,59,0.0,2.0,68,0.00,,,0.00,Wunderground v.1.15,2013-04-18 14:45:00,
2013-04-18 07:50:00,45.9,35.9,30.23,ENE,59,0.0,2.0,68,0.00,,,0.00,Wunderground v.1.15,2013-04-18 14:50:00,
2013-04-18 08:00:00,47.2,36.4,30.23,ENE,59,0.0,2.0,66,0.00,,,0.00,Wunderground v.1.15,2013-04-18 15:00:00,
2013-04-18 08:05:00,48.3,37.1,30.23,ENE,59,0.0,2.0,65,0.00,,,0.00,Wunderground v.1.15,2013-04-18 15:05:00,
2013-04-18 08:10:00,49.1,37.8,30.23,ENE,58,0.0,0.0,65,0.00,,,0.00,Wunderground v.1.15,2013-04-18 15:10:00,
2013-04-18 08:20:00,50.8,39.8,30.23,ENE,60,1.0,1.0,66,0.00,,,0.00,Wunderground v.1.15,2013-04-18 15:20:00,
2013-04-18 08:30:00,51.9,39.3,30.23,ENE,60,0.0,0.0,62,0.00,,,0.00,Wunderground v.1.15,2013-04-18 15:30:00,
2013-04-18 08:40:00,53.5,41.6,30.23,ENE,62,0.0,0.0,64,0.00,,,0.00,Wunderground v.1.15,2013-04-18 15:40:00,
2013-04-18 08:50:00,54.6,43.5,30.23,WSW,240,2.0,2.0,66,0.00,,,0.00,Wunderground v.1.15,2013-04-18 15:50:00,
2013-04-18 09:00:00,55.5,44.3,30.23,WSW,246,1.0,1.0,66,0.00,,,0.00,Wunderground v.1.15,2013-04-18 16:00:00,
2013-04-18 09:10:00,57.4,44.9,30.23,WSW,245,0.0,1.0,63,0.00,,,0.00,Wunderground v.1.15,2013-04-18 16:10:00,
2013-04-18 09:20:00,59.5,43.3,30.23,WSW,245,0.0,1.0,55,0.00,,,0.00,Wunderground v.1.15,2013-04-18 16:20:00,
2013-04-18 09:25:00,60.1,43.4,30.23,SSW,211,0.0,1.0,54,0.00,,,0.00,Wunderground v.1.15,2013-04-18 16:25:00,
2013-04-18 09:30:00,61.1,44.3,30.23,WSW,240,1.0,4.0,54,0.00,,,0.00,Wunderground v.1.15,2013-04-18 16:30:00,
2013-04-18 09:35:00,61.0,44.7,30.23,SW,214,2.0,4.0,55,0.00,,,0.00,Wunderground v.1.15,2013-04-18 16:35:00,
2013-04-18 09:40:00,60.9,44.6,30.23,SW,217,3.0,4.0,55,0.00,,,0.00,Wunderground v.1.15,2013-04-18 16:40:00,
2013-04-18 09:50:00,60.8,43.1,30.23,SSW,206,4.0,4.0,52,0.00,,,0.00,Wunderground v.1.15,2013-04-18 16:50:00,
2013-04-18 10:00:00,62.3,43.4,30.24,SSW,209,1.0,1.0,50,0.00,,,0.00,Wunderground v.1.15,2013-04-18 17:00:00,
2013-04-18 10:05:00,63.0,43.5,30.23,SSW,209,1.0,1.0,49,0.00,,,0.00,Wunderground v.1.15,2013-04-18 17:05:00,
2013-04-18 10:15:00,65.1,36.0,30.23,WNW,285,1.0,4.0,34,0.00,,,0.00,Wunderground v.1.15,2013-04-18 17:15:00,
2013-04-18 10:25:00,66.5,34.1,30.23,WSW,253,2.0,4.0,30,0.00,,,0.00,Wunderground v.1.15,2013-04-18 17:25:00,
2013-04-18 10:35:00,68.0,34.5,30.24,NW,316,1.0,2.0,29,0.00,,,0.00,Wunderground v.1.15,2013-04-18 17:35:00,
2013-04-18 10:40:00,68.4,34.0,30.24,NW,309,1.0,6.0,28,0.00,,,0.00,Wunderground v.1.15,2013-04-18 17:40:00,
2013-04-18 10:45:00,68.9,32.6,30.24,NNE,28,2.0,6.0,26,0.00,,,0.00,Wunderground v.1.15,2013-04-18 17:45:00,
2013-04-18 10:55:00,69.8,33.3,30.24,ESE,104,1.0,3.0,26,0.00,,,0.00,Wunderground v.1.15,2013-04-18 17:55:00,
2013-04-18 11:05:00,70.7,34.1,30.24,NW,319,1.0,2.0,26,0.00,,,0.00,Wunderground v.1.15,2013-04-18 18:05:00,
2013-04-18 11:15:00,71.7,34.0,30.24,NNW,330,1.0,3.0,25,0.00,,,0.00,Wunderground v.1.15,2013-04-18 18:15:00,
2013-04-18 11:25:00,72.2,34.4,30.24,NE,38,1.0,2.0,25,0.00,,,0.00,Wunderground v.1.15,2013-04-18 18:25:00,
2013-04-18 11:35:00,73.1,34.1,30.23,NNE,27,2.0,4.0,24,0.00,,,0.00,Wunderground v.1.15,2013-04-18 18:35:00,
2013-04-18 11:45:00,72.7,33.8,30.23,West,276,2.0,3.0,24,0.00,,,0.00,Wunderground v.1.15,2013-04-18 18:45:00,
2013-04-18 11:55:00,72.9,34.0,30.23,SW,227,2.0,7.0,24,0.00,,,0.00,Wunderground v.1.15,2013-04-18 18:55:00,
2013-04-18 12:05:00,73.5,37.5,30.23,NE,49,4.0,5.0,27,0.00,,,0.00,Wunderground v.1.15,2013-04-18 19:05:00,
2013-04-18 12:10:00,74.2,34.0,30.23,South,182,2.0,2.0,23,0.00,,,0.00,Wunderground v.1.15,2013-04-18 19:10:00,
2013-04-18 12:20:00,74.4,39.2,30.22,SSE,148,2.0,9.0,28,0.00,,,0.00,Wunderground v.1.15,2013-04-18 19:20:00,
2013-04-18 12:30:00,72.1,39.8,30.22,WSW,255,6.0,6.0,31,0.00,,,0.00,Wunderground v.1.15,2013-04-18 19:30:00,
2013-04-18 12:40:00,70.9,40.3,30.22,SW,227,7.0,7.0,33,0.00,,,0.00,Wunderground v.1.15,2013-04-18 19:40:00,
2013-04-18 12:50:00,70.5,39.2,30.22,South,181,5.0,7.0,32,0.00,,,0.00,Wunderground v.1.15,2013-04-18 19:50:00,
2013-04-18 13:00:00,70.6,38.5,30.22,SW,231,5.0,9.0,31,0.00,,,0.00,Wunderground v.1.15,2013-04-18 20:00:00,
2013-04-18 13:10:00,70.8,37.8,30.21,SW,234,6.0,9.0,30,0.00,,,0.00,Wunderground v.1.15,2013-04-18 20:10:00,
2013-04-18 13:15:00,70.4,38.3,30.21,SW,220,8.0,9.0,31,0.00,,,0.00,Wunderground v.1.15,2013-04-18 20:15:00,
2013-04-18 13:25:00,71.0,39.6,30.21,SW,227,7.0,9.0,32,0.00,,,0.00,Wunderground v.1.15,2013-04-18 20:25:00,
2013-04-18 13:35:00,71.3,38.2,30.20,SW,233,7.0,10.0,30,0.00,,,0.00,Wunderground v.1.15,2013-04-18 20:35:00,
2013-04-18 13:45:00,70.6,38.5,30.20,South,179,8.0,9.0,31,0.00,,,0.00,Wunderground v.1.15,2013-04-18 20:45:00,
2013-04-18 13:50:00,71.2,39.0,30.20,WSW,258,7.0,11.0,31,0.00,,,0.00,Wunderground v.1.15,2013-04-18 20:50:00,
2013-04-18 14:00:00,71.7,38.6,30.20,SW,217,8.0,9.0,30,0.00,,,0.00,Wunderground v.1.15,2013-04-18 21:00:00,
2013-04-18 14:10:00,72.1,39.8,30.20,SW,219,8.0,8.0,31,0.00,,,0.00,Wunderground v.1.15,2013-04-18 21:10:00,
2013-04-18 14:15:00,72.0,39.7,30.20,SW,223,7.0,9.0,31,0.00,,,0.00,Wunderground v.1.15,2013-04-18 21:15:00,
2013-04-18 14:25:00,71.6,41.0,30.19,WSW,248,9.0,11.0,33,0.00,,,0.00,Wunderground v.1.15,2013-04-18 21:25:00,
2013-04-18 14:30:00,72.0,41.3,30.19,SW,221,9.0,9.0,33,0.00,,,0.00,Wunderground v.1.15,2013-04-18 21:30:00,
2013-04-18 14:40:00,72.5,40.1,30.19,SW,229,7.0,10.0,31,0.00,,,0.00,Wunderground v.1.15,2013-04-18 21:40:00,
2013-04-18 14:50:00,73.8,40.4,30.19,WSW,252,6.0,10.0,30,0.00,,,0.00,Wunderground v.1.15,2013-04-18 21:50:00,
2013-04-18 15:00:00,73.6,39.4,30.19,West,259,8.0,8.0,29,0.00,,,0.00,Wunderground v.1.15,2013-04-18 22:00:00,
2013-04-18 15:05:00,74.3,40.0,30.19,West,269,6.0,9.0,29,0.00,,,0.00,Wunderground v.1.15,2013-04-18 22:05:00,
2013-04-18 15:10:00,74.6,40.2,30.19,SSW,213,5.0,9.0,29,0.00,,,0.00,Wunderground v.1.15,2013-04-18 22:10:00,
2013-04-18 15:15:00,73.5,41.0,30.19,SW,235,7.0,9.0,31,0.00,,,0.00,Wunderground v.1.15,2013-04-18 22:15:00,
2013-04-18 15:25:00,72.1,40.6,30.18,South,190,9.0,14.0,32,0.00,,,0.00,Wunderground v.1.15,2013-04-18 22:25:00,
2013-04-18 15:35:00,73.0,41.4,30.18,WSW,249,7.0,9.0,32,0.00,,,0.00,Wunderground v.1.15,2013-04-18 22:35:00,
2013-04-18 15:45:00,72.5,40.1,30.18,NW,315,7.0,9.0,31,0.00,,,0.00,Wunderground v.1.15,2013-04-18 22:45:00,
2013-04-18 15:50:00,72.9,39.6,30.17,SW,236,7.0,9.0,30,0.00,,,0.00,Wunderground v.1.15,2013-04-18 22:50:00,
2013-04-18 16:00:00,72.9,38.8,30.17,SW,231,8.0,9.0,29,0.00,,,0.00,Wunderground v.1.15,2013-04-18 23:00:00,
2013-04-18 16:05:00,72.7,39.5,30.17,WSW,252,8.0,9.0,30,0.00,,,0.00,Wunderground v.1.15,2013-04-18 23:05:00,
2013-04-18 16:15:00,72.9,41.3,30.17,WSW,240,7.0,9.0,32,0.00,,,0.00,Wunderground v.1.15,2013-04-18 23:15:00,
2013-04-18 16:25:00,72.6,41.0,30.17,SW,235,6.0,10.0,32,0.00,,,0.00,Wunderground v.1.15,2013-04-18 23:25:00,
2013-04-18 16:35:00,71.4,41.6,30.17,SSW,204,8.0,11.0,34,0.00,,,0.00,Wunderground v.1.15,2013-04-18 23:35:00,
2013-04-18 16:45:00,70.3,42.8,30.16,SW,226,8.0,11.0,37,0.00,,,0.00,Wunderground v.1.15,2013-04-18 23:45:00,
2013-04-18 16:55:00,70.5,42.2,30.17,SSW,209,7.0,9.0,36,0.00,,,0.00,Wunderground v.1.15,2013-04-18 23:55:00,
2013-04-18 17:05:00,70.8,41.8,30.17,SW,236,5.0,13.0,35,0.00,,,0.00,Wunderground v.1.15,2013-04-19 00:05:00,
2013-04-18 17:10:00,70.2,42.7,30.17,SSW,203,6.0,13.0,37,0.00,,,0.00,Wunderground v.1.15,2013-04-19 00:10:00,
2013-04-18 17:20:00,68.1,42.9,30.17,SSW,208,8.0,13.0,40,0.00,,,0.00,Wunderground v.1.15,2013-04-19 00:20:00,
2013-04-18 17:30:00,68.6,42.6,30.17,West,259,7.0,13.0,39,0.00,,,0.00,Wunderground v.1.15,2013-04-19 00:30:00,
2013-04-18 17:40:00,67.9,42.7,30.17,SSW,210,7.0,13.0,40,0.00,,,0.00,Wunderground v.1.15,2013-04-19 00:40:00,
2013-04-18 17:50:00,68.5,41.2,30.17,SW,216,5.0,13.0,37,0.00,,,0.00,Wunderground v.1.15,2013-04-19 00:50:00,
2013-04-18 17:55:00,68.1,40.8,30.17,South,188,6.0,13.0,37,0.00,,,0.00,Wunderground v.1.15,2013-04-19 00:55:00,
2013-04-18 18:05:00,67.9,39.2,30.17,SW,231,6.0,13.0,35,0.00,,,0.00,Wunderground v.1.15,2013-04-19 01:05:00,
2013-04-18 18:15:00,67.2,39.3,30.17,South,181,7.0,13.0,36,0.00,,,0.00,Wunderground v.1.15,2013-04-19 01:15:00,
2013-04-18 18:25:00,67.4,38.8,30.17,SW,225,5.0,13.0,35,0.00,,,0.00,Wunderground v.1.15,2013-04-19 01:25:00,
2013-04-18 18:30:00,67.4,38.8,30.17,WSW,244,4.0,4.0,35,0.00,,,0.00,Wunderground v.1.15,2013-04-19 01:30:00,
2013-04-18 18:40:00,67.3,38.0,30.17,SW,215,5.0,13.0,34,0.00,,,0.00,Wunderground v.1.15,2013-04-19 01:40:00,
2013-04-18 18:50:00,66.4,40.0,30.16,WSW,244,5.0,5.0,38,0.00,,,0.00,Wunderground v.1.15,2013-04-19 01:50:00,
2013-04-18 19:00:00,66.5,40.1,30.16,SW,223,3.0,13.0,38,0.00,,,0.00,Wunderground v.1.15,2013-04-19 02:00:00,
2013-04-18 19:05:00,66.5,40.1,30.16,SW,226,3.0,13.0,38,0.00,,,0.00,Wunderground v.1.15,2013-04-19 02:05:00,
2013-04-18 19:15:00,65.9,40.2,30.16,SW,233,1.0,2.0,39,0.00,,,0.00,Wunderground v.1.15,2013-04-19 02:15:00,
2013-04-18 19:25:00,64.7,41.7,30.16,WSW,253,2.0,4.0,43,0.00,,,0.00,Wunderground v.1.15,2013-04-19 02:25:00,
2013-04-18 19:35:00,63.3,41.6,30.16,WSW,258,3.0,4.0,45,0.00,,,0.00,Wunderground v.1.15,2013-04-19 02:35:00,
2013-04-18 19:45:00,62.5,42.0,30.17,SW,214,1.0,2.0,47,0.00,,,0.00,Wunderground v.1.15,2013-04-19 02:45:00,
2013-04-18 19:55:00,61.7,41.8,30.17,SW,214,0.0,0.0,48,0.00,,,0.00,Wunderground v.1.15,2013-04-19 02:55:00,
2013-04-18 20:05:00,61.1,41.8,30.16,SW,214,0.0,5.0,49,0.00,,,0.00,Wunderground v.1.15,2013-04-19 03:05:00,
2013-04-18 20:15:00,60.3,42.1,30.17,SW,214,0.0,5.0,51,0.00,,,0.00,Wunderground v.1.15,2013-04-19 03:15:00,
2013-04-18 20:25:00,59.3,41.7,30.17,SW,214,0.0,5.0,52,0.00,,,0.00,Wunderground v.1.15,2013-04-19 03:25:00,
2013-04-18 20:35:00,58.4,41.8,30.17,SW,214,0.0,5.0,54,0.00,,,0.00,Wunderground v.1.15,2013-04-19 03:35:00,
2013-04-18 20:40:00,58.0,41.4,30.17,SW,214,0.0,5.0,54,0.00,,,0.00,Wunderground v.1.15,2013-04-19 03:40:00,
2013-04-18 20:50:00,57.3,41.7,30.18,SW,214,0.0,5.0,56,0.00,,,0.00,Wunderground v.1.15,2013-04-19 03:50:00,
2013-04-18 20:55:00,56.9,41.4,30.18,SW,214,0.0,5.0,56,0.00,,,0.00,Wunderground v.1.15,2013-04-19 03:55:00,
2013-04-18 21:05:00,56.2,40.7,30.18,SW,214,0.0,5.0,56,0.00,,,0.00,Wunderground v.1.15,2013-04-19 04:05:00,
2013-04-18 21:10:00,56.0,40.5,30.18,SW,214,0.0,5.0,56,0.00,,,0.00,Wunderground v.1.15,2013-04-19 04:10:00,
2013-04-18 21:15:00,55.9,40.0,30.18,SW,214,0.0,5.0,55,0.00,,,0.00,Wunderground v.1.15,2013-04-19 04:15:00,
2013-04-18 21:20:00,55.8,39.9,30.18,SW,214,0.0,5.0,55,0.00,,,0.00,Wunderground v.1.15,2013-04-19 04:20:00,
2013-04-18 21:30:00,55.5,39.1,30.18,SW,214,0.0,5.0,54,0.00,,,0.00,Wunderground v.1.15,2013-04-19 04:30:00,
2013-04-18 21:35:00,55.4,39.0,30.18,SW,214,0.0,5.0,54,0.00,,,0.00,Wunderground v.1.15,2013-04-19 04:35:00,
2013-04-18 21:45:00,55.1,38.3,30.18,SW,214,0.0,5.0,53,0.00,,,0.00,Wunderground v.1.15,2013-04-19 04:45:00,
2013-04-18 21:55:00,55.1,37.8,30.19,SW,214,0.0,5.0,52,0.00,,,0.00,Wunderground v.1.15,2013-04-19 04:55:00,
2013-04-18 22:05:00,55.0,37.2,30.19,SW,214,0.0,5.0,51,0.00,,,0.00,Wunderground v.1.15,2013-04-19 05:05:00,
2013-04-18 22:15:00,54.8,36.5,30.19,SW,214,0.0,0.0,50,0.00,,,0.00,Wunderground v.1.15,2013-04-19 05:15:00,
2013-04-18 22:25:00,54.6,35.8,30.19,SW,214,0.0,0.0,49,0.00,,,0.00,Wunderground v.1.15,2013-04-19 05:25:00,
2013-04-18 22:30:00,54.4,36.1,30.19,SW,214,0.0,0.0,50,0.00,,,0.00,Wunderground v.1.15,2013-04-19 05:30:00,
2013-04-18 22:40:00,54.1,36.4,30.19,SW,214,0.0,0.0,51,0.00,,,0.00,Wunderground v.1.15,2013-04-19 05:40:00,
2013-04-18 22:50:00,53.7,36.5,30.19,SW,214,0.0,0.0,52,0.00,,,0.00,Wunderground v.1.15,2013-04-19 05:50:00,
2013-04-18 23:00:00,53.4,36.7,30.20,SW,214,0.0,1.0,53,0.00,,,0.00,Wunderground v.1.15,2013-04-19 06:00:00,
2013-04-18 23:05:00,53.2,37.4,30.19,SW,214,0.0,1.0,55,0.00,,,0.00,Wunderground v.1.15,2013-04-19 06:05:00,
2013-04-18 23:10:00,53.1,37.3,30.19,SW,214,0.0,1.0,55,0.00,,,0.00,Wunderground v.1.15,2013-04-19 06:10:00,
2013-04-18 23:20:00,52.7,36.5,30.19,SW,214,0.0,1.0,54,0.00,,,0.00,Wunderground v.1.15,2013-04-19 06:20:00,
2013-04-18 23:30:00,52.2,37.4,30.18,SW,214,0.0,1.0,57,0.00,,,0.00,Wunderground v.1.15,2013-04-19 06:30:00,
2013-04-18 23:40:00,51.7,37.4,30.18,SW,214,1.0,2.0,58,0.00,,,0.00,Wunderground v.1.15,2013-04-19 06:40:00,
2013-04-18 23:45:00,51.5,38.5,30.18,ENE,64,1.0,2.0,61,0.00,,,0.00,Wunderground v.1.15,2013-04-19 06:45:00,
2013-04-18 23:55:00,51.6,41.8,30.18,NE,49,1.0,2.0,69,0.00,,,0.00,Wunderground v.1.15,2013-04-19 06:55:00,